Time;durP1;ratioP1;P1;durP2;ratioP2;P2;SDS_P1;SDS_P2;PMS_P1;PMS_P2;Temp;Humidity;BMP_temperature;BMP_pressure;BME280_temperature;BME280_humidity;BME280_pressure;Samples;Min_cycle;Max_cycle;Signal;HPM_P1;HPM_P2
2022/07/31 00:01:38;;;;;;;1.65;1.52;;;25.80;43.70;;;29.68;28.54;101470.41;5114133;28;20066;-11
2022/07/31 00:04:05;;;;;;;1.40;1.30;;;25.80;43.70;;;29.72;28.84;101486.19;5114068;28;20050;-11
2022/07/31 00:06:33;;;;;;;1.30;1.20;;;25.80;43.70;;;29.69;28.71;101475.66;5114132;28;20399;-11
2022/07/31 00:08:59;;;;;;;1.63;1.30;;;25.80;43.70;;;29.74;28.74;101484.19;5113977;28;20515;-11
2022/07/31 00:11:25;;;;;;;1.52;1.40;;;25.80;43.70;;;29.72;28.56;101477.22;5114065;28;20052;-11
2022/07/31 00:13:51;;;;;;;1.88;1.40;;;25.80;43.70;;;29.69;28.54;101475.66;5113696;28;20055;-11
2022/07/31 00:16:17;;;;;;;1.50;1.40;;;25.80;43.70;;;29.74;28.66;101478.78;5114006;28;20552;-11
2022/07/31 00:18:43;;;;;;;2.47;1.52;;;25.80;43.70;;;29.73;28.53;101484.31;5113813;28;20129;-11
2022/07/31 00:21:09;;;;;;;2.03;1.50;;;25.80;43.80;;;29.71;28.73;101470.97;5113657;28;20066;-11
2022/07/31 00:23:35;;;;;;;1.42;1.33;;;25.80;43.80;;;29.72;28.71;101478.09;5113821;28;20047;-11
2022/07/31 00:26:01;;;;;;;2.00;1.67;;;25.80;43.80;;;29.69;28.61;101472.97;5114246;28;20070;-11
2022/07/31 00:28:26;;;;;;;1.80;1.30;;;25.80;43.80;;;29.69;28.56;101472.97;5113694;28;20447;-11
2022/07/31 00:30:52;;;;;;;1.50;1.40;;;25.80;43.80;;;29.69;28.82;101467.56;5113631;28;20040;-11
2022/07/31 00:33:18;;;;;;;1.58;1.48;;;25.80;43.80;;;29.72;28.62;101477.22;5091371;28;20052;-11
2022/07/31 00:35:44;;;;;;;1.30;1.20;;;25.80;43.80;;;29.67;28.52;101469.56;5113594;28;20066;-11
2022/07/31 00:38:10;;;;;;;1.38;1.27;;;25.80;43.80;;;29.69;28.73;101467.56;5113618;28;20043;-11
2022/07/31 00:40:36;;;;;;;1.45;1.30;;;25.80;43.80;;;29.71;28.63;101468.28;5113632;28;20039;-11
2022/07/31 00:43:02;;;;;;;1.50;1.40;;;25.80;43.80;;;29.71;28.75;101462.91;5095602;28;20043;-11
2022/07/31 00:45:28;;;;;;;1.60;1.50;;;25.80;43.80;;;29.72;28.71;101461.91;5094727;28;20044;-11
2022/07/31 00:47:54;;;;;;;1.50;1.40;;;25.80;43.80;;;29.67;28.64;101458.78;5113539;28;20051;-11
2022/07/31 00:50:20;;;;;;;1.63;1.52;;;25.80;43.90;;;29.71;28.76;101464.75;5113460;28;20039;-11
2022/07/31 00:52:46;;;;;;;1.40;1.30;;;25.80;43.80;;;29.68;28.45;101446.16;5113291;28;20120;-11
2022/07/31 00:55:12;;;;;;;1.60;1.50;;;25.80;43.90;;;29.66;28.66;101445.44;5113369;28;20043;-11
2022/07/31 00:57:38;;;;;;;1.50;1.40;;;25.80;43.90;;;29.73;28.69;101443.88;5095524;28;20047;-11
2022/07/31 01:00:05;;;;;;;1.48;1.38;;;25.80;43.90;;;29.72;28.66;101445.75;5094899;28;20458;-11
2022/07/31 01:02:31;;;;;;;1.90;1.80;;;25.80;43.90;;;29.66;28.75;101429.28;5113314;28;20138;-11
2022/07/31 01:04:58;;;;;;;1.42;1.33;;;25.80;43.90;;;29.69;28.83;101432.53;5095213;28;20050;-11
2022/07/31 01:07:24;;;;;;;1.27;1.17;;;25.80;43.90;;;29.70;28.73;101442.34;5113496;28;20052;-11
2022/07/31 01:09:52;;;;;;;1.52;1.40;;;25.80;43.90;;;29.65;28.71;101425.72;5113416;28;20493;-11
2022/07/31 01:12:30;;;;;;;1.33;1.25;;;25.80;43.90;;;29.64;28.65;101442.03;5094766;28;20134;-11
2022/07/31 01:15:01;;;;;;;1.40;1.30;;;25.80;44.40;;;29.68;28.83;101438.06;5095218;28;20392;-11
2022/07/31 01:17:30;;;;;;;1.47;1.37;;;25.80;43.90;;;29.66;28.62;101440.06;5095135;28;20500;-11
2022/07/31 01:19:56;;;;;;;2.05;1.63;;;25.80;43.90;;;29.70;28.73;101439.66;5113474;28;20051;-11
2022/07/31 01:23:02;;;;;;;1.42;1.33;;;25.80;43.90;;;29.68;28.75;101452.38;5094697;28;20400;-11
2022/07/31 01:26:03;;;;;;;1.70;1.60;;;25.80;43.90;;;29.65;28.75;101441.03;5093878;28;20055;-11
2022/07/31 01:29:15;;;;;;;2.28;1.52;;;25.80;43.90;;;29.68;28.87;101449.69;5079740;28;20062;-11
2022/07/31 01:31:52;;;;;;;1.52;1.40;;;25.80;43.90;;;29.67;28.66;101447.13;5094572;28;20044;-11
2022/07/31 01:34:34;;;;;;;1.70;1.60;;;25.80;44.00;;;29.65;28.83;101449.97;5077984;28;20047;-11
2022/07/31 01:37:19;;;;;;;1.50;1.30;;;25.80;44.00;;;29.60;29.02;101437.91;5093670;28;20066;-11
2022/07/31 01:40:07;;;;;;;1.80;1.70;;;25.80;44.00;;;29.64;28.80;101444.75;5094773;28;20500;-11
2022/07/31 01:42:36;;;;;;;1.35;1.25;;;25.80;44.00;;;29.62;28.76;101444.88;5094946;28;20044;-11
2022/07/31 01:45:05;;;;;;;1.45;1.30;;;25.80;44.00;;;29.66;28.82;101440.06;5078031;28;20040;-11
2022/07/31 01:47:32;;;;;;;1.40;1.30;;;25.80;44.00;;;29.61;28.78;101434.25;5112452;28;20050;-11
2022/07/31 01:50:03;;;;;;;1.52;1.42;;;25.80;44.00;;;29.66;28.94;101450.84;5077764;28;20401;-11
2022/07/31 01:52:31;;;;;;;1.33;1.20;;;25.80;44.00;;;29.63;28.70;101435.78;5094554;28;20143;-11
2022/07/31 01:54:59;;;;;;;1.35;1.25;;;25.80;44.00;;;29.65;28.90;101443.72;5077388;28;20093;-11
2022/07/31 01:57:27;;;;;;;1.50;1.40;;;25.80;44.10;;;29.67;28.72;101441.75;5076975;28;20514;-11
2022/07/31 01:59:59;;;;;;;1.30;1.20;;;25.80;44.00;;;29.64;28.76;101440.19;5094120;28;20102;-11
2022/07/31 02:02:43;;;;;;;1.27;1.20;;;25.80;44.00;;;29.66;28.70;101451.69;5079856;28;20452;-11
2022/07/31 02:05:10;;;;;;;1.58;1.48;;;25.70;44.00;;;29.65;28.99;101443.72;5077721;28;20104;-12
2022/07/31 02:07:40;;;;;;;1.50;1.40;;;25.80;44.10;;;29.64;28.72;101436.66;5076379;28;20378;-11
2022/07/31 02:10:13;;;;;;;1.35;1.20;;;25.70;44.00;;;29.62;28.90;101433.22;5077343;28;20100;-11
2022/07/31 02:12:40;;;;;;;1.55;1.38;;;25.70;44.00;;;29.65;28.93;101438.34;5093946;28;20036;-12
2022/07/31 02:15:10;;;;;;;1.50;1.40;;;25.80;44.10;;;29.58;28.87;101426.41;5076090;28;20052;-11
2022/07/31 02:17:40;;;;;;;1.85;1.63;;;25.70;44.00;;;29.64;28.89;101440.19;5094336;28;20380;-11
2022/07/31 02:20:23;;;;;;;2.45;1.67;;;25.70;44.10;;;29.64;28.75;101429.41;5095232;28;20051;-12
2022/07/31 02:22:53;;;;;;;1.30;1.20;;;25.70;44.10;;;29.64;28.75;101431.28;5093917;28;20095;-11
2022/07/31 02:25:20;;;;;;;1.42;1.33;;;25.70;44.10;;;29.58;28.78;101421.03;5094171;28;20054;-11
2022/07/31 02:27:47;;;;;;;1.42;1.33;;;25.70;44.10;;;29.58;28.94;101421.88;5093878;28;20130;-11
2022/07/31 02:30:14;;;;;;;1.38;1.27;;;25.70;44.10;;;29.59;28.85;101425.41;5093716;28;20405;-11
2022/07/31 02:32:45;;;;;;;1.60;1.50;;;25.70;44.10;;;29.63;28.81;101438.47;5077663;28;20043;-11
2022/07/31 02:35:15;;;;;;;1.40;1.30;;;25.70;44.10;;;29.62;28.82;101430.53;5076651;28;20055;-11
2022/07/31 02:37:44;;;;;;;1.60;1.50;;;25.70;44.10;;;29.58;28.88;101423.72;5079878;28;20052;-11
2022/07/31 02:40:11;;;;;;;1.20;1.15;;;25.70;44.10;;;29.61;28.95;101427.00;5080076;28;20052;-22
2022/07/31 02:42:39;;;;;;;1.40;1.30;;;25.70;44.10;;;29.57;28.86;101412.09;5097131;28;20055;-11
2022/07/31 02:45:10;;;;;;;1.92;1.73;;;25.70;44.10;;;29.59;28.79;101417.31;5095478;28;20040;-11
2022/07/31 02:47:37;;;;;;;1.38;1.27;;;25.70;44.10;;;29.56;28.84;101413.09;5080412;28;20047;-11
2022/07/31 02:50:07;;;;;;;1.33;1.23;;;25.70;44.20;;;29.63;29.02;101418.78;5095373;28;20489;-11
2022/07/31 02:52:34;;;;;;;1.50;1.40;;;25.70;44.20;;;29.56;28.90;101413.94;5097192;28;20043;-11
2022/07/31 02:55:01;;;;;;;1.52;1.42;;;25.70;44.10;;;29.59;28.93;101407.44;5079656;28;20050;-11
2022/07/31 02:57:28;;;;;;;1.58;1.48;;;25.70;44.10;;;29.60;29.02;101408.25;5080424;28;20043;-11
2022/07/31 02:59:54;;;;;;;1.55;1.45;;;25.70;44.10;;;29.61;28.91;101408.13;5114928;28;20065;-11
2022/07/31 03:02:21;;;;;;;1.30;1.20;;;25.70;44.20;;;29.62;29.03;101407.16;5096904;28;20385;-11
2022/07/31 03:04:47;;;;;;;1.45;1.35;;;25.70;44.10;;;29.57;28.82;101401.34;5097212;28;20043;-11
2022/07/31 03:07:16;;;;;;;1.30;1.20;;;25.70;44.20;;;29.58;28.93;101411.09;5097257;28;20054;-11
2022/07/31 03:09:42;;;;;;;1.50;1.40;;;25.70;44.20;;;29.61;28.84;101423.47;5096848;28;20048;-12
2022/07/31 03:12:28;;;;;;;1.92;1.70;;;25.70;44.20;;;29.61;28.93;101409.97;5114398;28;20142;-11
2022/07/31 03:14:54;;;;;;;1.48;1.38;;;25.70;44.20;;;29.58;28.83;101407.56;5095083;28;20518;-11
2022/07/31 03:17:22;;;;;;;2.00;1.80;;;25.70;44.20;;;29.58;28.85;101413.78;5096825;28;20512;-11
2022/07/31 03:19:52;;;;;;;1.70;1.60;;;25.70;44.20;;;29.55;29.09;101406.84;5094664;28;20070;-11
2022/07/31 03:22:18;;;;;;;1.50;1.40;;;25.70;44.20;;;29.60;29.05;101408.25;5096410;28;20096;-11
2022/07/31 03:24:44;;;;;;;1.60;1.50;;;25.70;44.20;;;29.55;28.89;101403.28;5096512;28;20075;-11
2022/07/31 03:27:10;;;;;;;1.58;1.45;;;25.70;44.20;;;29.57;28.77;101406.72;5096478;28;20378;-11
2022/07/31 03:29:38;;;;;;;1.60;1.45;;;25.70;44.20;;;29.58;29.00;101400.31;5096232;28;20058;-11
2022/07/31 03:32:05;;;;;;;1.60;1.50;;;25.70;44.20;;;29.61;29.00;101415.38;5096559;28;20059;-11
2022/07/31 03:34:31;;;;;;;1.30;1.20;;;25.70;44.30;;;29.55;28.89;101404.16;5096046;28;20047;-11
2022/07/31 03:36:57;;;;;;;1.75;1.48;;;25.70;44.20;;;29.58;28.96;101403.00;5096847;28;20051;-11
2022/07/31 03:39:24;;;;;;;1.42;1.33;;;25.70;44.30;;;29.55;28.93;101393.38;5094187;28;20054;-11
2022/07/31 03:41:53;;;;;;;1.50;1.30;;;25.70;44.30;;;29.56;28.93;101399.63;5079220;28;20400;-11
2022/07/31 03:44:20;;;;;;;2.42;1.55;;;25.70;44.30;;;29.58;28.83;101394.94;5079273;28;20047;-11
2022/07/31 03:46:46;;;;;;;1.98;1.38;;;25.70;44.30;;;29.59;28.83;101406.56;5079048;28;20055;-11
2022/07/31 03:49:14;;;;;;;1.50;1.40;;;25.70;44.30;;;29.56;29.09;101408.53;5077290;28;20083;-11
2022/07/31 03:51:42;;;;;;;1.60;1.50;;;25.70;44.30;;;29.55;29.09;101398.78;5079528;28;20047;-11
2022/07/31 03:54:09;;;;;;;1.40;1.30;;;25.70;44.30;;;29.58;28.89;101400.31;5095935;28;20050;-11
2022/07/31 03:56:56;;;;;;;1.40;1.30;;;25.70;44.30;;;29.54;29.04;101391.66;5096586;28;20047;-11
2022/07/31 03:59:22;;;;;;;1.95;1.65;;;25.70;44.30;;;29.58;28.83;101396.78;5078384;28;20512;-11
2022/07/31 04:01:48;;;;;;;1.52;1.25;;;25.70;44.30;;;29.56;28.96;101395.06;5096212;28;20044;-11
2022/07/31 04:04:19;;;;;;;1.85;1.30;;;25.70;44.20;;;29.57;29.04;101393.25;5095857;28;20109;-11
2022/07/31 04:07:00;;;;;;;1.63;1.50;;;25.70;44.20;;;29.63;28.95;101406.13;5095888;28;20147;-11
2022/07/31 04:09:26;;;;;;;1.50;1.40;;;25.70;44.20;;;29.57;29.11;101398.63;5113898;28;20126;-11
2022/07/31 04:11:52;;;;;;;1.40;1.30;;;25.80;44.20;;;29.64;28.88;101407.00;5095654;28;20051;-11
2022/07/31 04:14:18;;;;;;;1.30;1.20;;;25.80;44.10;;;29.60;28.86;101400.19;5079107;28;20040;-11
2022/07/31 04:16:44;;;;;;;1.75;1.65;;;25.80;44.10;;;29.66;28.99;101413.94;5095983;28;20047;-11
2022/07/31 04:19:10;;;;;;;1.33;1.23;;;25.80;44.10;;;29.66;28.91;101413.94;5094985;28;20516;-11
2022/07/31 04:21:36;;;;;;;1.50;1.40;;;25.80;44.10;;;29.65;29.07;101408.69;5114222;28;20047;-11
2022/07/31 04:24:04;;;;;;;3.28;1.70;;;25.80;44.00;;;29.69;29.02;101408.28;5095455;28;20124;-11
2022/07/31 04:27:00;;;;;;;1.60;1.50;;;25.90;44.10;;;29.70;28.87;101410.00;5040781;28;20045;-11
2022/07/31 04:29:32;;;;;;;1.60;1.50;;;25.90;44.00;;;29.73;28.90;101404.31;5095448;28;20040;-11
2022/07/31 04:31:58;;;;;;;1.50;1.40;;;25.90;44.00;;;29.74;28.96;101413.25;5095603;28;20082;-11
2022/07/31 04:34:31;;;;;;;1.52;1.40;;;26.00;44.00;;;29.81;28.84;101413.59;5095550;28;20043;-11
2022/07/31 04:36:57;;;;;;;1.42;1.30;;;26.00;43.90;;;29.82;28.81;101409.88;5095371;28;20047;-11
2022/07/31 04:39:23;;;;;;;1.63;1.52;;;26.00;43.90;;;29.84;28.65;101422.25;5113517;28;20447;-11
2022/07/31 04:41:49;;;;;;;1.58;1.45;;;26.10;43.90;;;29.90;28.95;101416.28;5095263;28;20048;-11
2022/07/31 04:44:15;;;;;;;1.85;1.60;;;26.10;43.80;;;29.90;28.85;101412.72;5095205;28;20047;-11
2022/07/31 04:46:51;;;;;;;1.85;1.40;;;26.20;43.80;;;29.93;28.97;101412.44;5095360;28;20532;-11
2022/07/31 04:49:17;;;;;;;1.48;1.38;;;26.20;43.80;;;29.98;28.99;101426.34;5095079;28;20039;-11
2022/07/31 04:51:43;;;;;;;1.63;1.52;;;26.20;43.70;;;29.95;28.73;101418.53;5094938;28;20511;-11
2022/07/31 04:54:10;;;;;;;1.70;1.60;;;26.20;43.80;;;29.97;28.83;101421.97;5095026;28;20062;-11
2022/07/31 04:56:43;;;;;;;1.60;1.50;;;26.20;43.80;;;29.96;28.91;101416.72;5095073;28;20455;-11
2022/07/31 04:59:14;;;;;;;1.65;1.55;;;26.20;43.80;;;29.97;28.87;101416.59;5112228;28;20043;-11
2022/07/31 05:01:44;;;;;;;1.45;1.30;;;26.20;43.80;;;29.98;28.66;101407.47;5094643;28;20055;-11
2022/07/31 05:04:13;;;;;;;1.52;1.40;;;26.20;43.90;;;30.02;28.65;101419.72;5094008;28;20622;-11
2022/07/31 05:06:46;;;;;;;1.50;1.40;;;26.20;43.90;;;30.01;28.79;101418.00;5113168;28;20059;-10
2022/07/31 05:09:14;;;;;;;1.60;1.50;;;26.20;43.80;;;30.00;28.61;101415.44;5093709;28;20139;-14
2022/07/31 05:11:42;;;;;;;1.50;1.40;;;26.10;43.80;;;29.99;28.55;101408.31;5094737;28;20035;-11
2022/07/31 05:14:10;;;;;;;1.70;1.60;;;26.20;43.80;;;30.04;28.69;101424.97;5094822;28;20047;-11
2022/07/31 05:16:37;;;;;;;1.55;1.45;;;26.20;43.80;;;30.06;28.68;101428.34;5093188;28;20168;-10
2022/07/31 05:19:05;;;;;;;1.90;1.50;;;26.20;43.80;;;30.03;28.72;101417.84;5094933;28;20054;-11
2022/07/31 05:21:50;;;;;;;1.50;1.40;;;26.30;43.80;;;30.07;28.62;101425.53;5113344;28;20104;-11
2022/07/31 05:24:24;;;;;;;2.47;1.52;;;26.30;43.70;;;30.08;28.76;101416.41;5095415;28;20076;-11
2022/07/31 05:26:58;;;;;;;1.38;1.27;;;26.30;43.70;;;30.08;28.67;101411.03;5095212;28;20070;-11
2022/07/31 05:29:25;;;;;;;1.85;1.45;;;26.20;43.60;;;30.05;28.67;101403.22;5093581;28;20385;-10
2022/07/31 05:31:51;;;;;;;1.77;1.67;;;26.30;43.70;;;30.08;28.59;101402.94;5092414;28;20044;-11
2022/07/31 05:34:17;;;;;;;1.77;1.50;;;26.40;43.70;;;30.10;28.48;101394.72;5094531;28;20059;-11
2022/07/31 05:36:43;;;;;;;2.03;1.65;;;26.40;43.60;;;30.13;28.64;101398.97;5094315;28;20044;-10
2022/07/31 05:39:11;;;;;;;2.25;1.55;;;26.40;43.60;;;30.13;28.22;101405.22;5092554;28;20055;-11
2022/07/31 05:41:40;;;;;;;2.13;1.60;;;26.40;43.60;;;30.14;28.57;101406.94;5112810;28;20052;-10
2022/07/31 05:44:20;;;;;;;1.45;1.35;;;26.30;43.50;;;30.15;28.57;101400.53;5113122;28;20052;-11
2022/07/31 05:46:47;;;;;;;1.60;1.50;;;26.40;43.50;;;30.19;28.43;101393.84;5094123;28;20047;-10
2022/07/31 05:49:14;;;;;;;1.70;1.60;;;26.50;43.50;;;30.22;28.44;101387.31;5094292;28;20047;-11
2022/07/31 05:51:43;;;;;;;1.30;1.20;;;26.50;43.90;;;30.33;28.54;101394.41;5094297;28;20124;-11
2022/07/31 05:54:10;;;;;;;1.55;1.45;;;26.60;43.30;;;30.34;28.35;101393.41;5111399;28;20469;-11
2022/07/31 05:57:11;;;;;;;1.63;1.52;;;26.60;43.10;;;30.40;28.24;101393.69;5041975;28;20163;-11
2022/07/31 05:59:41;;;;;;;1.35;1.25;;;26.70;43.10;;;30.48;28.14;101396.53;5076785;28;20393;-11
2022/07/31 06:02:07;;;;;;;1.30;1.20;;;26.80;42.90;;;30.56;28.18;101397.66;5094182;28;20060;-10
2022/07/31 06:04:50;;;;;;;1.50;1.40;;;26.90;42.80;;;30.60;27.99;101396.38;5093689;28;20092;-11
2022/07/31 06:07:16;;;;;;;1.55;1.45;;;27.00;42.80;;;30.64;27.86;101397.78;5092292;28;20533;-10
2022/07/31 06:09:41;;;;;;;1.33;1.23;;;27.00;42.70;;;30.70;27.99;101404.44;5094036;28;20079;-11
2022/07/31 06:12:08;;;;;;;1.40;1.30;;;27.00;42.60;;;30.73;28.02;101410.41;5097117;28;20096;-11
2022/07/31 06:14:34;;;;;;;1.75;1.40;;;27.00;42.60;;;30.73;27.98;101414.94;5115920;28;20130;-11
2022/07/31 06:17:20;;;;;;;1.48;1.38;;;26.90;42.70;;;30.74;27.95;101413.94;5096394;28;20558;-11
2022/07/31 06:19:47;;;;;;;1.48;1.38;;;26.90;42.70;;;30.71;28.10;101412.41;5095841;28;20048;-11
2022/07/31 06:22:13;;;;;;;1.77;1.67;;;26.90;42.80;;;30.70;27.99;101407.97;5097439;28;20117;-11
2022/07/31 06:24:39;;;;;;;1.55;1.35;;;26.90;42.90;;;30.65;27.83;101399.47;5097384;28;20040;-11
2022/07/31 06:27:06;;;;;;;2.13;1.40;;;26.90;42.90;;;30.66;27.99;101406.59;5096239;28;20453;-11
2022/07/31 06:29:32;;;;;;;1.33;1.23;;;26.80;42.80;;;30.69;28.06;101406.31;5095628;28;20477;-10
2022/07/31 06:31:58;;;;;;;1.35;1.25;;;26.90;42.90;;;30.70;27.91;101401.75;5097094;28;20062;-10
2022/07/31 06:34:24;;;;;;;1.63;1.40;;;26.90;42.80;;;30.73;27.98;101409.56;5097807;28;20090;-11
2022/07/31 06:36:50;;;;;;;1.98;1.40;;;26.90;42.80;;;30.71;28.10;101395.34;5115587;28;20048;-11
2022/07/31 06:39:19;;;;;;;1.30;1.20;;;26.90;42.80;;;30.66;27.94;101393.94;5097200;28;20067;-11
2022/07/31 06:42:04;;;;;;;1.77;1.30;;;26.90;42.90;;;30.72;27.90;101402.44;5115865;28;20047;-10
2022/07/31 06:44:31;;;;;;;1.08;1.08;;;26.90;42.90;;;30.71;28.02;101400.75;5115505;28;20048;-11
2022/07/31 06:47:18;;;;;;;1.30;1.20;;;26.90;42.90;;;30.67;27.92;101392.94;5115671;28;20058;-11
2022/07/31 06:50:13;;;;;;;1.40;1.30;;;26.80;42.90;;;30.70;27.90;101397.19;5097382;28;20171;-11
2022/07/31 06:52:45;;;;;;;1.63;1.52;;;26.80;42.90;;;30.66;27.87;101398.50;5096746;28;20074;-11
2022/07/31 06:55:11;;;;;;;1.40;1.30;;;26.80;42.90;;;30.65;28.00;101394.06;5096888;28;20424;-10
2022/07/31 06:57:39;;;;;;;1.40;1.30;;;26.80;42.90;;;30.70;27.99;101404.44;5097147;28;20052;-11
2022/07/31 07:00:06;;;;;;;1.50;1.40;;;26.80;42.90;;;30.66;27.87;101399.34;5097509;28;20085;-11
2022/07/31 07:02:35;;;;;;;1.20;1.15;;;26.80;42.80;;;30.69;27.83;101398.19;5094979;28;20102;-12
2022/07/31 07:05:01;;;;;;;1.50;1.40;;;26.80;42.80;;;30.65;27.83;101391.38;5096769;28;20050;-11
2022/07/31 07:07:26;;;;;;;1.67;1.45;;;26.80;42.80;;;30.70;27.88;101397.19;5096614;28;20055;-11
2022/07/31 07:09:55;;;;;;;1.38;1.30;;;26.80;42.80;;;30.70;27.87;101399.88;5096698;28;20134;-11
2022/07/31 07:12:41;;;;;;;1.95;1.45;;;26.80;42.90;;;30.67;27.89;101392.06;5114810;28;20068;-11
2022/07/31 07:15:08;;;;;;;1.50;1.40;;;26.80;42.90;;;30.70;27.98;101402.59;5096628;28;20043;-11
2022/07/31 07:17:35;;;;;;;2.17;1.45;;;26.80;42.80;;;30.68;27.89;101393.78;5096186;28;20044;-11
2022/07/31 07:20:01;;;;;;;1.17;1.17;;;26.80;42.80;;;30.65;27.94;101384.13;5096001;28;20475;-11
2022/07/31 07:22:28;;;;;;;1.30;1.20;;;26.80;42.80;;;30.70;27.90;101385.53;5095637;28;20052;-10
2022/07/31 07:24:54;;;;;;;1.40;1.30;;;26.80;42.80;;;30.66;27.84;101379.59;5095463;28;20097;-11
2022/07/31 07:27:22;;;;;;;1.60;1.50;;;26.80;42.80;;;30.65;27.81;101372.47;5096330;28;20048;-11
2022/07/31 07:29:48;;;;;;;1.73;1.63;;;26.80;42.80;;;30.64;27.91;101371.66;5096309;28;20050;-11
2022/07/31 07:32:15;;;;;;;1.38;1.27;;;26.80;42.80;;;30.67;27.83;101378.59;5114572;28;20043;-11
2022/07/31 07:34:41;;;;;;;1.40;1.30;;;26.80;42.90;;;30.70;27.78;101380.16;5096330;28;20493;-11
2022/07/31 07:37:16;;;;;;;1.40;1.30;;;26.80;42.80;;;30.66;27.81;101371.50;5096275;28;20054;-11
2022/07/31 07:39:42;;;;;;;1.48;1.33;;;26.80;42.80;;;30.72;27.79;101384.38;5096188;28;20051;-11
2022/07/31 07:42:08;;;;;;;1.60;1.50;;;26.80;42.80;;;30.69;27.73;101370.34;5096252;28;20043;-11
2022/07/31 07:44:34;;;;;;;1.23;1.13;;;26.80;42.80;;;30.71;27.80;101371.06;5114546;28;20108;-10
2022/07/31 07:47:00;;;;;;;1.42;1.33;;;26.80;42.80;;;30.69;27.94;101373.03;5096584;28;20048;-10
2022/07/31 07:49:26;;;;;;;1.40;1.30;;;26.80;42.80;;;30.72;27.72;101376.28;5096025;28;20070;-10
2022/07/31 07:52:16;;;;;;;1.30;1.20;;;26.90;42.80;;;30.74;27.91;101376.13;5096095;28;20046;-10
2022/07/31 07:55:14;;;;;;;1.02;1.02;;;26.90;42.80;;;30.73;27.92;101380.69;5114213;28;20069;-10
2022/07/31 07:57:59;;;;;;;1.30;1.20;;;26.90;42.80;;;30.73;27.83;101369.06;5114233;28;20097;-11
2022/07/31 08:00:43;;;;;;;1.40;1.30;;;26.90;42.80;;;30.70;27.83;101363.97;5114584;28;20120;-11
2022/07/31 08:03:10;;;;;;;1.33;1.23;;;26.90;42.80;;;30.71;27.89;101371.06;5095868;28;20545;-11
2022/07/31 08:05:39;;;;;;;1.40;1.30;;;26.80;42.80;;;30.70;27.73;101375.59;5095834;28;20155;-10
2022/07/31 08:08:05;;;;;;;1.50;1.40;;;26.80;42.80;;;30.71;27.80;101374.59;5095611;28;20142;-11
2022/07/31 08:10:38;;;;;;;1.20;1.10;;;26.80;42.80;;;30.62;27.92;101362.84;5114629;28;20106;-10
2022/07/31 08:13:23;;;;;;;1.40;1.30;;;26.80;42.90;;;30.70;27.87;101372.91;5096304;28;20083;-11
2022/07/31 08:16:08;;;;;;;1.30;1.17;;;26.80;42.90;;;30.68;27.95;101372.19;5114417;28;20154;-10
2022/07/31 08:18:53;;;;;;;1.40;1.30;;;26.80;42.90;;;30.64;27.92;101368.09;5094977;28;20055;-11
2022/07/31 08:21:20;;;;;;;1.20;1.10;;;26.80;43.00;;;30.66;27.87;101376.91;5094721;28;20056;-11
2022/07/31 08:23:46;;;;;;;1.10;1.10;;;26.80;43.00;;;30.61;27.83;101371.94;5093457;28;20048;-10
2022/07/31 08:26:12;;;;;;;1.83;1.40;;;26.70;43.00;;;30.63;27.97;101375.31;5095058;28;20405;-10
2022/07/31 08:28:38;;;;;;;1.40;1.30;;;26.70;43.00;;;30.65;27.88;101377.88;5093690;28;20040;-11
2022/07/31 08:31:04;;;;;;;1.42;1.33;;;26.70;43.10;;;30.58;28.03;101374.91;5095387;28;20048;-10
2022/07/31 08:33:35;;;;;;;1.17;1.10;;;26.70;43.10;;;30.58;27.93;101369.53;5095462;28;20052;-10
2022/07/31 08:36:03;;;;;;;1.38;1.30;;;26.70;43.10;;;30.58;27.98;101376.78;5095321;28;20055;-11
2022/07/31 08:38:29;;;;;;;2.13;1.40;;;26.70;43.10;;;30.61;27.93;101369.25;5094164;28;20044;-11
2022/07/31 08:41:15;;;;;;;1.05;1.02;;;26.70;43.10;;;30.64;28.00;101378.91;5113461;28;20052;-11
2022/07/31 08:43:40;;;;;;;1.40;1.30;;;26.70;43.10;;;30.59;27.78;101373.06;5076694;28;20409;-10
2022/07/31 08:46:08;;;;;;;1.25;1.20;;;26.70;43.10;;;30.60;27.98;101377.47;5094940;28;20083;-10
2022/07/31 08:48:40;;;;;;;1.73;1.60;;;26.70;43.10;;;30.58;27.90;101380.31;5095164;28;20063;-11
2022/07/31 08:51:12;;;;;;;1.50;1.40;;;26.70;43.10;;;30.57;27.97;101377.75;5095369;28;20039;-10
2022/07/31 08:53:58;;;;;;;1.70;1.40;;;26.70;43.10;;;30.61;27.90;101363.84;5113831;28;20165;-11
2022/07/31 08:56:25;;;;;;;1.30;1.20;;;26.70;43.20;;;30.60;28.02;101363.97;5078371;28;20138;-11
2022/07/31 08:58:51;;;;;;;1.42;1.33;;;26.70;43.10;;;30.64;28.01;101365.41;5094414;28;20504;-10
2022/07/31 09:01:17;;;;;;;1.40;1.30;;;26.80;43.10;;;30.64;27.96;101366.25;5092926;28;20444;-11
2022/07/31 09:03:44;;;;;;;1.67;1.50;;;26.80;43.00;;;30.64;28.05;101360.84;5077558;28;20055;-11
2022/07/31 09:06:12;;;;;;;1.25;1.15;;;26.80;43.10;;;30.67;27.93;101367.78;5077693;28;20079;-11
2022/07/31 09:08:37;;;;;;;1.35;1.25;;;26.80;43.00;;;30.65;28.02;101367.09;5092734;28;20058;-10
2022/07/31 09:11:10;;;;;;;1.33;1.20;;;26.80;43.00;;;30.69;28.02;101365.81;5094739;28;20439;-11
2022/07/31 09:13:59;;;;;;;1.45;1.35;;;26.80;43.00;;;30.69;28.01;101359.53;5095625;28;20051;-11
2022/07/31 09:16:49;;;;;;;2.15;1.50;;;26.80;43.00;;;30.69;27.84;101357.72;5080184;28;20044;-11
2022/07/31 09:19:15;;;;;;;1.50;1.40;;;26.80;43.00;;;30.71;27.94;101357.56;5095292;28;20048;-11
2022/07/31 09:21:45;;;;;;;1.65;1.52;;;26.80;43.10;;;30.66;27.87;101353.44;5094815;28;20051;-11
2022/07/31 09:24:27;;;;;;;1.52;1.42;;;26.80;43.10;;;30.65;27.86;101351.72;5093032;28;20500;-10
2022/07/31 09:27:06;;;;;;;1.80;1.38;;;26.80;43.20;;;30.67;27.99;101351.59;5113058;28;20443;-11
2022/07/31 09:29:40;;;;;;;1.10;1.05;;;26.80;43.20;;;30.69;27.80;101343.34;5094459;28;20101;-10
2022/07/31 09:32:20;;;;;;;1.38;1.27;;;26.70;43.20;;;30.65;28.08;101334.69;5094677;28;20465;-10
2022/07/31 09:35:11;;;;;;;1.52;1.42;;;26.70;43.20;;;30.67;27.92;101338.09;5094611;28;20044;-11
2022/07/31 09:37:38;;;;;;;1.40;1.30;;;26.70;43.20;;;30.63;27.99;101332.16;5093940;28;20511;-11
2022/07/31 09:40:13;;;;;;;1.60;1.50;;;26.70;43.20;;;30.67;28.08;101338.09;5113191;28;20055;-11
2022/07/31 09:42:57;;;;;;;1.58;1.48;;;26.70;43.70;;;30.62;28.17;101327.75;5097785;28;20055;-11
2022/07/31 09:45:25;;;;;;;1.73;1.50;;;26.70;43.20;;;30.62;27.78;101330.47;5078979;28;20036;-10
2022/07/31 09:48:11;;;;;;;1.50;1.40;;;26.70;43.20;;;30.62;27.98;101333.16;5097968;28;20129;-11
2022/07/31 09:50:37;;;;;;;1.40;1.30;;;26.70;43.20;;;30.63;28.08;101324.03;5098041;28;20058;-11
2022/07/31 09:53:05;;;;;;;1.45;1.33;;;26.80;43.20;;;30.66;27.95;101334.56;5096868;28;20072;-10
2022/07/31 09:55:31;;;;;;;1.55;1.45;;;26.80;43.20;;;30.66;27.97;101325.63;5097954;28;20051;-11
2022/07/31 09:57:59;;;;;;;1.55;1.45;;;26.80;43.10;;;30.63;28.05;101317.81;5074749;28;20052;-10
2022/07/31 10:00:30;;;;;;;1.40;1.30;;;26.80;43.10;;;30.66;28.00;101314.81;5096714;28;20369;-10
2022/07/31 10:02:57;;;;;;;1.50;1.40;;;26.80;43.10;;;30.67;28.00;101311.09;5098389;28;20130;-11
2022/07/31 10:05:26;;;;;;;1.45;1.33;;;26.80;43.00;;;30.73;27.90;101321.31;5081182;28;20458;-11
2022/07/31 10:07:56;;;;;;;1.30;1.20;;;26.90;43.10;;;30.72;27.92;101314.19;5096690;28;20055;-11
2022/07/31 10:10:36;;;;;;;1.50;1.40;;;26.90;43.10;;;30.72;27.88;101302.56;5097858;28;20052;-10
2022/07/31 10:13:23;;;;;;;2.53;1.50;;;26.80;43.10;;;30.73;27.96;101296.19;5114065;28;20538;-11
2022/07/31 10:15:53;;;;;;;1.48;1.38;;;26.80;43.00;;;30.75;27.92;101304.97;5097991;28;20127;-11
2022/07/31 10:18:42;;;;;;;1.40;1.30;;;26.90;43.00;;;30.71;27.88;101300.88;5115939;28;20054;-11
2022/07/31 10:21:54;;;;;;;1.30;1.20;;;26.90;43.00;;;30.74;28.00;101298.72;5033252;28;20049;-11
2022/07/31 10:24:27;;;;;;;1.30;1.20;;;26.90;43.10;;;30.77;27.77;101295.75;5091199;28;20048;-11
2022/07/31 10:26:59;;;;;;;1.83;1.63;;;26.90;43.00;;;30.77;27.97;101294.88;5097395;28;20044;-10
2022/07/31 10:29:25;;;;;;;;;;;26.90;43.00;;;30.92;27.95;101295.22;5115272;28;20050;-11